createdAt,value
2018-09-11T00:00:41.629Z,9.13
2018-09-11T00:03:14.997Z,7.70
2018-09-11T00:08:54.912Z,6.85
2018-09-11T00:11:29.158Z,10.08
2018-09-11T00:14:03.181Z,7.20
2018-09-11T00:16:38.299Z,7.60
2018-09-11T00:19:12.224Z,7.33
2018-09-11T00:21:44.569Z,6.55
2018-09-11T00:26:57.008Z,6.70
2018-09-11T00:29:35.704Z,7.58
2018-09-11T00:32:08.197Z,5.25
2018-09-11T00:34:39.860Z,6.85
2018-09-11T00:37:18.745Z,7.10
2018-09-11T00:39:54.185Z,4.75
2018-09-11T00:42:25.065Z,5.60
2018-09-11T00:44:58.158Z,7.83
2018-09-11T00:47:30.712Z,5.65
2018-09-11T00:50:03.761Z,6.45
2018-09-11T00:52:36.917Z,5.08
2018-09-11T00:55:10.916Z,8.05
2018-09-11T00:57:42.211Z,7.30
2018-09-11T01:00:13.570Z,9.23
2018-09-11T01:02:43.881Z,5.35
2018-09-11T01:05:15.702Z,4.67
2018-09-11T01:07:48.720Z,5.03
2018-09-11T01:10:21.344Z,8.48
2018-09-11T01:12:52.822Z,6.47
2018-09-11T01:15:24.389Z,6.65
2018-09-11T01:17:54.709Z,7.53
2018-09-11T01:20:26.733Z,5.30
2018-09-11T01:22:57.199Z,6.12
2018-09-11T01:25:29.494Z,6.62
2018-09-11T01:27:59.407Z,8.43
2018-09-11T01:30:29.502Z,7.47
2018-09-11T01:32:59.996Z,9.40
2018-09-11T01:35:30.299Z,6.37
2018-09-11T01:38:01.666Z,5.15
2018-09-11T01:40:33.700Z,3.25
2018-09-11T01:43:04.112Z,6.30
2018-09-11T01:45:34.471Z,5.70
2018-09-11T01:48:05.873Z,7.42
2018-09-11T01:50:35.838Z,5.22
2018-09-11T01:53:06.059Z,5.85
2018-09-11T01:55:37.315Z,6.33
2018-09-11T01:58:08.811Z,4.55
2018-09-11T02:00:38.831Z,8.08
2018-09-11T02:03:09.419Z,7.50
2018-09-11T02:05:39.579Z,8.85
2018-09-11T02:08:10.625Z,7.22
2018-09-11T02:10:41.352Z,7.58
2018-09-11T02:13:13.022Z,7.25
2018-09-11T02:15:45.531Z,6.78
2018-09-11T02:18:18.086Z,7.65
2018-09-11T02:20:49.765Z,9.70
2018-09-11T02:23:20.041Z,9.00
2018-09-11T02:25:51.250Z,6.97
2018-09-11T02:28:23.057Z,7.10
2018-09-11T02:30:54.818Z,12.00
2018-09-11T02:33:25.245Z,10.50
2018-09-11T02:35:55.926Z,8.80
2018-09-11T02:38:27.938Z,7.72
2018-09-11T02:41:01.031Z,8.50
2018-09-11T02:43:31.282Z,6.95
2018-09-11T02:46:03.314Z,6.87
2018-09-11T02:48:34.045Z,4.95
2018-09-11T02:51:05.395Z,11.85
2018-09-11T02:53:40.566Z,5.65
2018-09-11T02:56:11.558Z,3.47
2018-09-11T02:58:42.824Z,8.95
2018-09-11T03:01:14.326Z,7.28
2018-09-11T03:03:44.888Z,4.60
2018-09-11T03:06:21.575Z,6.35
2018-09-11T03:08:53.215Z,6.92
2018-09-11T03:11:23.356Z,6.42
2018-09-11T03:13:53.760Z,11.43
2018-09-11T03:16:25.931Z,7.97
2018-09-11T03:18:56.381Z,9.08
2018-09-11T03:21:30.867Z,7.72
2018-09-11T03:24:10.343Z,11.80
2018-09-11T03:26:42.811Z,9.40
2018-09-11T03:29:15.303Z,9.65
2018-09-11T03:31:46.197Z,10.03
2018-09-11T03:34:17.150Z,10.18
2018-09-11T03:36:51.220Z,9.23
2018-09-11T03:39:21.589Z,11.10
2018-09-11T03:41:52.285Z,10.20
2018-09-11T03:44:25.330Z,10.18
2018-09-11T03:46:55.926Z,11.73
2018-09-11T03:52:41.545Z,10.78
2018-09-11T03:55:14.217Z,10.30
2018-09-11T03:57:49.554Z,11.78
2018-09-11T04:00:20.261Z,13.20
2018-09-11T04:02:52.051Z,9.68
2018-09-11T04:05:29.265Z,10.70
2018-09-11T04:08:06.343Z,10.60
2018-09-11T04:10:42.808Z,9.63
2018-09-11T04:13:19.659Z,14.10
2018-09-11T04:15:54.600Z,13.53
2018-09-11T04:18:26.456Z,13.45
2018-09-11T04:21:03.006Z,14.73
2018-09-11T04:23:38.243Z,12.80
2018-09-11T04:26:14.213Z,7.37
2018-09-11T04:28:49.664Z,19.27
2018-09-11T04:31:21.620Z,16.60
2018-09-11T04:33:52.048Z,12.93
2018-09-11T04:36:22.421Z,15.40
2018-09-11T04:39:01.092Z,13.98
2018-09-11T04:41:32.546Z,16.05
2018-09-11T04:44:04.621Z,16.45
2018-09-11T04:46:35.224Z,15.78
2018-09-11T04:49:06.343Z,16.87
2018-09-11T04:51:38.047Z,16.73
2018-09-11T04:54:09.144Z,15.30
2018-09-11T04:56:39.361Z,17.82
2018-09-11T04:59:09.793Z,9.45
2018-09-11T05:01:41.141Z,16.10
2018-09-11T05:04:11.719Z,18.87
2018-09-11T05:06:44.107Z,16.97
2018-09-11T05:09:14.926Z,16.95
2018-09-11T05:11:46.747Z,17.92
2018-09-11T05:14:19.879Z,15.88
2018-09-11T05:16:51.733Z,18.37
2018-09-11T05:19:32.615Z,17.55
2018-09-11T05:22:12.137Z,19.65
2018-09-11T05:24:43.344Z,42.25
2018-09-11T05:30:15.058Z,19.50
2018-09-11T05:32:50.281Z,17.90
2018-09-11T05:35:24.732Z,16.50
2018-09-11T05:37:58.549Z,16.80
2018-09-11T05:40:29.891Z,16.82
2018-09-11T05:43:01.533Z,15.58
2018-09-11T05:45:34.225Z,13.68
2018-09-11T05:48:12.608Z,16.93
2018-09-11T05:50:44.217Z,15.30
2018-09-11T05:53:14.492Z,18.65
2018-09-11T05:58:21.670Z,19.52
2018-09-11T06:00:54.737Z,15.98
2018-09-11T06:03:26.761Z,19.00
2018-09-11T06:06:00.756Z,17.10
2018-09-11T06:08:32.529Z,20.23
2018-09-11T06:11:11.563Z,17.40
2018-09-11T06:13:48.321Z,15.53
2018-09-11T06:16:30.916Z,17.05
2018-09-11T06:19:04.160Z,14.80
2018-09-11T06:21:36.943Z,17.70
2018-09-11T06:24:10.161Z,17.95
2018-09-11T06:26:49.089Z,16.07
2018-09-11T06:32:00.311Z,16.45
2018-09-11T06:34:32.668Z,16.20
2018-09-11T06:37:10.125Z,12.10
2018-09-11T06:39:45.741Z,11.12
2018-09-11T06:42:18.673Z,16.15
2018-09-11T06:44:53.588Z,23.73
2018-09-11T06:47:26.386Z,18.45
2018-09-11T06:49:58.325Z,11.33
2018-09-11T06:52:32.667Z,19.17
2018-09-11T06:55:20.808Z,17.17
2018-09-11T07:07:41.471Z,17.02
2018-09-11T07:10:29.914Z,17.62
2018-09-11T07:13:27.999Z,9.73
2018-09-11T07:16:02.311Z,12.58
2018-09-11T07:22:22.542Z,18.60
2018-09-11T07:25:04.912Z,11.18
2018-09-11T07:27:46.621Z,20.10
2018-09-11T07:30:31.986Z,16.73
2018-09-11T07:33:12.665Z,11.28
2018-09-11T07:35:56.680Z,17.05
2018-09-11T07:38:34.912Z,20.00
2018-09-11T07:41:26.018Z,18.60
2018-09-11T07:44:11.274Z,16.20
2018-09-11T07:47:00.212Z,17.12
2018-09-11T07:49:42.500Z,15.90
2018-09-11T07:52:22.581Z,11.38
2018-09-11T07:54:58.814Z,11.38
2018-09-11T07:57:35.043Z,15.05
2018-09-11T08:03:02.072Z,15.43
2018-09-11T08:05:40.574Z,14.33
2018-09-11T08:08:17.576Z,9.15
2018-09-11T08:10:53.665Z,17.27
2018-09-11T08:13:24.871Z,17.07
2018-09-11T08:15:55.831Z,14.65
2018-09-11T08:18:26.132Z,15.20
2018-09-11T08:20:56.533Z,16.52
2018-09-11T08:23:26.464Z,8.75
2018-09-11T08:25:57.314Z,15.18
2018-09-11T08:28:27.709Z,13.25
2018-09-11T08:30:58.774Z,19.75
2018-09-11T08:33:29.894Z,14.18
2018-09-11T08:36:06.662Z,18.45
2018-09-11T08:41:20.769Z,12.43
2018-09-11T08:43:59.195Z,10.95
2018-09-11T08:46:30.166Z,11.18
2018-09-11T08:49:07.117Z,14.05
2018-09-11T08:51:39.083Z,15.55
2018-09-11T08:54:16.410Z,14.00
2018-09-11T09:02:55.203Z,18.25
2018-09-11T09:07:05.363Z,19.17
2018-09-11T09:09:43.061Z,14.13
2018-09-11T09:12:14.904Z,20.15
2018-09-11T09:14:53.801Z,19.23
2018-09-11T09:17:26.018Z,17.90
2018-09-11T09:19:58.169Z,18.17
2018-09-11T09:22:29.099Z,14.83
2018-09-11T09:27:39.216Z,17.17
2018-09-11T09:30:11.219Z,13.05
2018-09-11T09:32:43.425Z,15.23
2018-09-11T09:35:16.570Z,15.53
2018-09-11T09:37:47.334Z,11.78
2018-09-11T09:40:20.755Z,19.25
2018-09-11T09:42:53.725Z,13.38
2018-09-11T09:45:29.365Z,15.70
2018-09-11T09:53:34.483Z,9.05
2018-09-11T09:56:12.077Z,9.30
2018-09-11T09:59:04.616Z,11.05
2018-09-11T10:04:55.222Z,12.82
2018-09-11T10:13:01.142Z,16.93
2018-09-11T10:15:40.550Z,11.97
2018-09-11T10:18:27.706Z,16.07
2018-09-11T10:23:47.431Z,13.43
2018-09-11T10:26:28.557Z,14.98
2018-09-11T10:29:02.366Z,13.62
2018-09-11T10:31:40.054Z,20.20
2018-09-11T10:34:15.286Z,16.62
2018-09-11T10:39:26.443Z,15.65
2018-09-11T10:41:58.434Z,12.33
2018-09-11T10:44:32.627Z,14.70
2018-09-11T10:47:05.150Z,16.90
2018-09-11T10:49:42.317Z,18.98
2018-09-11T10:55:14.956Z,16.10
2018-09-11T10:57:58.472Z,13.43
2018-09-11T11:00:43.231Z,18.27
2018-09-11T11:03:15.857Z,13.38
2018-09-11T11:05:57.051Z,13.83
2018-09-11T11:08:33.560Z,17.77
2018-09-11T11:11:16.568Z,17.82
2018-09-11T11:14:09.688Z,12.78
2018-09-11T11:20:08.556Z,15.70
2018-09-11T11:22:41.948Z,17.57
2018-09-11T11:30:59.806Z,16.87
2018-09-11T11:33:43.364Z,21.30
2018-09-11T11:36:22.380Z,17.77
2018-09-11T11:38:56.564Z,12.37
2018-09-11T11:41:40.907Z,15.03
2018-09-11T11:57:25.722Z,17.82
2018-09-11T11:59:56.587Z,20.25
2018-09-11T12:02:35.389Z,15.23
2018-09-11T12:05:28.076Z,13.95
2018-09-11T12:07:59.394Z,13.80
2018-09-11T12:10:34.195Z,21.55
2018-09-11T12:13:07.351Z,14.68
2018-09-11T12:15:37.509Z,14.50
2018-09-11T12:18:07.736Z,13.70
2018-09-11T12:20:37.713Z,21.68
2018-09-11T12:23:08.749Z,19.10
2018-09-11T12:25:42.967Z,21.02
2018-09-11T12:28:13.783Z,20.45
2018-09-11T12:30:45.539Z,16.55
2018-09-11T12:33:15.704Z,19.17
2018-09-11T12:35:47.493Z,14.33
2018-09-11T12:38:17.833Z,16.77
2018-09-11T12:40:49.451Z,16.50
2018-09-11T12:43:19.418Z,16.55
2018-09-11T12:45:49.524Z,21.97
2018-09-11T12:48:19.786Z,22.13
2018-09-11T12:50:52.281Z,17.10
2018-09-11T12:53:22.975Z,21.68
2018-09-11T12:55:55.379Z,15.85
2018-09-11T12:58:26.461Z,21.82
2018-09-11T13:00:56.348Z,21.35
2018-09-11T13:03:27.924Z,20.30
2018-09-11T13:05:58.864Z,21.82
2018-09-11T13:08:30.599Z,14.60
2018-09-11T13:11:00.806Z,21.35
2018-09-11T13:13:32.004Z,22.87
2018-09-11T13:16:02.103Z,22.62
2018-09-11T13:18:32.850Z,19.52
2018-09-11T13:21:03.438Z,20.55
2018-09-11T13:23:35.196Z,21.40
2018-09-11T13:26:05.313Z,18.07
2018-09-11T13:28:36.554Z,20.05
2018-09-11T13:31:07.280Z,21.12
2018-09-11T13:33:37.847Z,17.55
2018-09-11T13:36:08.781Z,26.57
2018-09-11T13:38:39.664Z,23.87
2018-09-11T13:41:10.026Z,21.57
2018-09-11T13:43:41.232Z,17.90
2018-09-11T13:46:11.278Z,30.57
2018-09-11T13:48:41.269Z,26.27
2018-09-11T13:51:13.565Z,29.15
2018-09-11T13:53:43.793Z,29.42
2018-09-11T13:56:14.797Z,26.93
2018-09-11T13:58:46.900Z,25.35
2018-09-11T14:01:22.869Z,28.77
2018-09-11T14:03:52.875Z,29.50
2018-09-11T14:06:23.031Z,32.93
2018-09-11T14:08:55.193Z,29.02
2018-09-11T14:11:25.296Z,23.73
2018-09-11T14:13:55.417Z,34.20
2018-09-11T14:16:25.538Z,22.22
2018-09-11T14:18:55.915Z,19.35
2018-09-11T14:21:26.394Z,29.32
2018-09-11T14:23:56.413Z,21.65
2018-09-11T14:26:27.051Z,26.52
2018-09-11T14:28:57.724Z,24.45
2018-09-11T14:31:28.864Z,28.50
2018-09-11T14:33:59.899Z,27.95
2018-09-11T14:39:12.328Z,25.48
2018-09-11T14:41:42.502Z,17.55
2018-09-11T14:44:13.519Z,17.42
2018-09-11T14:46:44.174Z,14.98
2018-09-11T14:49:17.539Z,18.50
2018-09-11T14:51:48.815Z,19.00
2018-09-11T14:54:18.937Z,18.70
2018-09-11T14:56:49.886Z,10.93
2018-09-11T14:59:22.211Z,13.90
2018-09-11T15:01:58.086Z,16.57
2018-09-11T15:04:29.844Z,13.62
2018-09-11T15:07:00.488Z,12.68
2018-09-11T15:09:37.542Z,13.60
2018-09-11T15:12:07.714Z,11.38
2018-09-11T15:14:39.173Z,9.80
2018-09-11T15:17:10.208Z,10.98
2018-09-11T15:19:39.998Z,11.68
2018-09-11T15:22:09.887Z,12.15
2018-09-11T15:24:39.961Z,22.02
2018-09-11T15:27:10.058Z,8.78
2018-09-11T15:29:40.110Z,9.20
2018-09-11T15:32:10.790Z,5.97
2018-09-11T15:34:40.627Z,6.12
2018-09-11T15:37:10.616Z,6.15
2018-09-11T15:39:40.681Z,7.53
2018-09-11T15:42:13.134Z,8.30
2018-09-11T15:44:43.799Z,5.08
2018-09-11T15:47:14.082Z,6.40
2018-09-11T15:52:25.839Z,5.53
2018-09-11T15:54:55.953Z,4.45
2018-09-11T15:57:26.052Z,5.95
2018-09-11T15:59:56.512Z,7.30
2018-09-11T16:02:26.801Z,4.20
2018-09-11T16:04:58.000Z,4.60
2018-09-11T16:07:28.064Z,5.05
2018-09-11T16:09:58.827Z,6.67
2018-09-11T16:12:31.163Z,7.45
2018-09-11T16:15:06.546Z,7.37
2018-09-11T16:17:40.171Z,5.83
2018-09-11T16:20:14.051Z,7.03
2018-09-11T16:22:45.171Z,3.25
2018-09-11T16:25:15.081Z,8.63
2018-09-11T16:27:58.569Z,3.90
2018-09-11T16:33:29.911Z,3.77
2018-09-11T16:36:03.939Z,5.28
2018-09-11T16:38:36.285Z,6.78
2018-09-11T16:41:10.473Z,6.80
2018-09-11T16:43:42.763Z,10.28
2018-09-11T16:46:13.796Z,6.00
2018-09-11T16:48:59.922Z,8.05
2018-09-11T16:51:30.300Z,8.38
2018-09-11T16:54:00.598Z,6.20
2018-09-11T16:56:34.808Z,7.15
2018-09-11T16:59:04.886Z,2.30
2018-09-11T17:01:35.406Z,2.90
2018-09-11T17:04:07.680Z,2.17
2018-09-11T17:06:40.044Z,3.42
2018-09-11T17:16:47.977Z,3.65
2018-09-11T17:19:18.637Z,3.25
2018-09-11T17:21:51.434Z,3.40
2018-09-11T17:24:22.023Z,4.47
2018-09-11T17:26:52.535Z,5.28
2018-09-11T17:29:22.933Z,4.53
2018-09-11T17:31:56.707Z,4.50
2018-09-11T17:34:26.833Z,5.47
2018-09-11T17:36:59.061Z,4.20
2018-09-11T17:39:29.020Z,5.08
2018-09-11T17:41:59.885Z,5.20
2018-09-11T17:44:30.704Z,3.62
2018-09-11T17:47:01.908Z,4.10
2018-09-11T17:49:34.736Z,5.70
2018-09-11T17:52:06.627Z,4.15
2018-09-11T17:54:37.402Z,4.55
2018-09-11T17:57:10.771Z,3.50
2018-09-11T17:59:40.789Z,2.98
2018-09-11T18:02:11.933Z,4.05
2018-09-11T18:04:42.544Z,4.37
2018-09-11T18:07:15.018Z,4.00
2018-09-11T18:09:45.206Z,5.35
2018-09-11T18:12:21.286Z,4.55
2018-09-11T18:14:51.734Z,7.28
2018-09-11T18:17:23.143Z,4.97
2018-09-11T18:19:53.121Z,4.83
2018-09-11T18:22:27.755Z,4.08
2018-09-11T18:24:58.664Z,5.42
2018-09-11T18:27:28.852Z,4.80
2018-09-11T18:29:59.806Z,6.85
2018-09-11T18:32:30.563Z,4.90
2018-09-11T18:35:01.799Z,3.83
2018-09-11T18:37:32.014Z,8.18
2018-09-11T18:40:02.140Z,4.28
2018-09-11T18:42:32.270Z,6.78
2018-09-11T18:45:03.318Z,7.55
2018-09-11T18:47:34.286Z,6.58
2018-09-11T18:50:05.931Z,4.67
2018-09-11T18:52:38.056Z,6.45
2018-09-11T18:55:08.820Z,5.40
2018-09-11T18:57:39.976Z,4.33
2018-09-11T19:00:10.502Z,6.10
2018-09-11T19:02:44.466Z,5.37
2018-09-11T19:05:15.972Z,6.35
2018-09-11T19:07:48.106Z,4.97
2018-09-11T19:10:19.583Z,5.35
2018-09-11T19:12:51.562Z,5.75
2018-09-11T19:15:21.879Z,5.67
2018-09-11T19:17:51.981Z,5.45
2018-09-11T19:20:25.144Z,4.78
2018-09-11T19:22:56.402Z,3.75
2018-09-11T19:25:30.399Z,3.87
2018-09-11T19:28:00.410Z,7.42
2018-09-11T19:30:32.675Z,5.53
2018-09-11T19:33:03.041Z,4.08
2018-09-11T19:35:33.526Z,3.65
2018-09-11T19:38:07.435Z,3.77
2018-09-11T19:40:38.855Z,5.65
2018-09-11T19:43:09.811Z,5.10
2018-09-11T19:45:40.571Z,5.75
2018-09-11T19:48:10.984Z,5.12
2018-09-11T19:50:41.790Z,5.12
2018-09-11T19:53:12.778Z,5.22
2018-09-11T19:55:44.118Z,5.95
2018-09-11T19:58:18.029Z,4.17
2018-09-11T20:01:05.199Z,5.45
2018-09-11T20:03:45.130Z,4.87
2018-09-11T20:07:03.375Z,9.80
2018-09-11T20:10:19.753Z,4.67
2018-09-11T20:16:02.178Z,5.33
2018-09-11T20:18:34.472Z,6.15
2018-09-11T20:21:06.803Z,6.42
2018-09-11T20:23:36.964Z,8.00
2018-09-11T20:26:11.298Z,6.80
2018-09-11T20:28:43.738Z,4.37
2018-09-11T20:31:14.118Z,4.17
2018-09-11T20:33:44.876Z,4.05
2018-09-11T20:36:16.404Z,5.90
2018-09-11T20:38:47.132Z,5.50
2018-09-11T20:41:19.009Z,8.83
2018-09-11T20:51:12.263Z,3.10
2018-09-11T20:53:45.707Z,3.55
2018-09-11T20:56:20.479Z,5.00
2018-09-11T20:58:53.372Z,5.72
2018-09-11T21:01:25.273Z,5.97
2018-09-11T21:03:59.985Z,4.78
2018-09-11T21:06:33.933Z,2.45
2018-09-11T21:09:05.235Z,5.10
2018-09-11T21:11:35.780Z,3.37
2018-09-11T21:14:07.580Z,2.98
2018-09-11T21:16:43.607Z,4.28
2018-09-11T21:19:16.307Z,3.77
2018-09-11T21:31:43.075Z,6.08
2018-09-11T21:34:14.229Z,4.30
2018-09-11T21:36:44.745Z,4.00
2018-09-11T21:39:14.773Z,4.40
2018-09-11T21:41:45.399Z,5.78
2018-09-11T21:44:17.148Z,3.35
2018-09-11T21:46:49.817Z,2.72
2018-09-11T21:49:22.923Z,3.47
2018-09-11T21:51:53.148Z,1.62
2018-09-11T21:54:27.049Z,5.55
2018-09-11T21:57:00.275Z,1.87
2018-09-11T21:59:30.363Z,2.98
2018-09-11T22:02:01.344Z,5.15
2018-09-11T22:04:34.793Z,2.92
2018-09-11T22:07:10.237Z,4.22
2018-09-11T22:09:40.240Z,4.58
2018-09-11T22:12:11.516Z,4.05
2018-09-11T22:14:42.747Z,4.20
2018-09-11T22:17:15.941Z,4.35
2018-09-11T22:19:48.439Z,2.05
2018-09-11T22:22:18.538Z,1.98
2018-09-11T22:24:48.827Z,3.08
2018-09-11T22:27:20.513Z,2.92
2018-09-11T22:29:52.488Z,5.60
2018-09-11T22:32:22.407Z,4.35
2018-09-11T22:34:52.444Z,6.17
2018-09-11T23:21:39.852Z,2.95
2018-09-11T23:24:09.841Z,2.52
2018-09-11T23:26:43.868Z,4.12
2018-09-11T23:29:15.581Z,2.35
2018-09-11T23:31:48.326Z,4.17
2018-09-11T23:34:18.925Z,4.15
2018-09-11T23:36:48.880Z,5.87
2018-09-11T23:39:19.045Z,3.00
2018-09-11T23:41:49.472Z,5.25
2018-09-11T23:44:22.016Z,2.47
2018-09-11T23:46:54.405Z,3.05
2018-09-11T23:49:26.558Z,3.75
2018-09-11T23:51:57.262Z,7.10
2018-09-11T23:54:27.367Z,1.07
2018-09-11T23:56:58.838Z,4.47
2018-09-11T23:59:31.419Z,5.35
